createdAt,value
2022-10-05T00:01:35.515Z,98823.78
2022-10-05T00:04:21.756Z,98829.59
2022-10-05T00:07:00.969Z,98822.81
2022-10-05T00:09:32.526Z,98827.19
2022-10-05T00:11:59.893Z,98827.00
2022-10-05T00:14:36.785Z,98822.06
2022-10-05T00:17:05.671Z,98821.88
2022-10-05T00:19:39.094Z,98827.94
2022-10-05T00:22:09.300Z,98821.25
2022-10-05T00:24:36.726Z,98821.03
2022-10-05T00:27:15.219Z,98819.44
2022-10-05T00:29:43.484Z,98827.94
2022-10-05T00:32:10.948Z,98818.56
2022-10-05T00:34:39.136Z,98815.97
2022-10-05T00:37:07.102Z,98807.47
2022-10-05T00:39:39.106Z,98804.53
2022-10-05T00:42:50.601Z,98809.09
2022-10-05T00:45:38.218Z,98802.53
2022-10-05T00:48:41.380Z,98795.78
2022-10-05T00:51:39.050Z,98788.88
2022-10-05T00:54:27.937Z,98786.97
2022-10-05T00:56:58.028Z,98784.81
2022-10-05T01:00:10.096Z,98767.47
2022-10-05T01:03:08.033Z,98772.78
2022-10-05T01:06:26.075Z,98760.50
2022-10-05T01:09:19.872Z,98760.56
2022-10-05T01:12:10.634Z,98754.78
2022-10-05T01:14:58.318Z,98761.91
2022-10-05T01:17:53.631Z,98747.59
2022-10-05T01:20:44.427Z,98754.94
2022-10-05T01:23:48.682Z,98763.19
2022-10-05T01:26:37.149Z,98767.03
2022-10-05T01:29:25.413Z,98753.06
2022-10-05T01:32:21.120Z,98771.59
2022-10-05T01:35:20.751Z,98775.69
2022-10-05T01:38:09.769Z,98781.81
2022-10-05T01:41:04.084Z,98780.75
2022-10-05T01:43:43.551Z,98785.19
2022-10-05T01:46:34.955Z,98785.09
2022-10-05T01:49:36.215Z,98782.16
2022-10-05T01:52:24.167Z,98768.19
2022-10-05T01:55:18.472Z,98764.16
2022-10-05T01:58:12.771Z,98757.25
2022-10-05T02:01:04.894Z,98758.00
2022-10-05T02:03:47.317Z,98757.47
2022-10-05T02:06:30.877Z,98743.59
2022-10-05T02:09:21.764Z,98735.22
2022-10-05T02:12:05.752Z,98735.69
2022-10-05T02:14:42.499Z,98729.56
2022-10-05T02:17:24.316Z,98729.13
2022-10-05T02:19:59.389Z,98726.06
2022-10-05T02:22:40.802Z,98728.09
2022-10-05T02:25:17.625Z,98720.00
2022-10-05T02:28:14.148Z,98711.34
2022-10-05T02:31:25.009Z,98711.94
2022-10-05T02:33:52.422Z,98730.38
2022-10-05T02:36:36.434Z,98726.19
2022-10-05T02:39:29.524Z,98716.44
2022-10-05T02:42:11.143Z,98724.41
2022-10-05T02:45:22.113Z,98718.44
2022-10-05T02:48:22.493Z,98721.34
2022-10-05T02:51:58.228Z,98712.16
2022-10-05T02:55:23.254Z,98728.13
2022-10-05T02:58:27.070Z,98737.53
2022-10-05T03:01:38.725Z,98732.31
2022-10-05T03:04:35.791Z,98736.31
2022-10-05T03:07:12.482Z,98735.69
2022-10-05T03:10:05.768Z,98732.47
2022-10-05T03:12:58.192Z,98743.75
2022-10-05T03:15:31.708Z,98749.88
2022-10-05T03:18:35.743Z,98752.59
2022-10-05T03:21:40.350Z,98764.69
2022-10-05T03:24:31.332Z,98775.28
2022-10-05T03:27:37.440Z,98770.31
2022-10-05T03:30:19.605Z,98775.28
2022-10-05T03:33:10.443Z,98779.00
2022-10-05T03:35:58.289Z,98775.56
2022-10-05T03:38:48.473Z,98773.66
2022-10-05T03:41:31.415Z,98784.00
2022-10-05T03:44:42.838Z,98781.47
2022-10-05T03:47:47.892Z,98769.06
2022-10-05T03:50:47.855Z,98760.88
2022-10-05T03:53:28.283Z,98762.47
2022-10-05T03:56:20.537Z,98732.31
2022-10-05T03:59:00.232Z,98735.13
2022-10-05T04:01:43.265Z,98721.44
2022-10-05T04:04:23.821Z,98717.06
2022-10-05T04:06:55.465Z,98722.13
2022-10-05T04:09:42.803Z,98712.69
2022-10-05T04:12:25.776Z,98708.34
2022-10-05T04:15:03.771Z,98693.63
2022-10-05T04:17:47.860Z,98701.28
2022-10-05T04:20:45.153Z,98701.44
2022-10-05T04:24:11.741Z,98709.25
2022-10-05T04:27:00.272Z,98725.97
2022-10-05T04:29:42.291Z,98740.81
2022-10-05T04:32:42.002Z,98739.66
2022-10-05T04:35:27.906Z,98750.53
2022-10-05T04:38:34.872Z,98746.19
2022-10-05T04:41:33.590Z,98745.97
2022-10-05T04:44:39.157Z,98736.97
2022-10-05T04:47:40.242Z,98739.75
2022-10-05T04:50:47.626Z,98737.16
2022-10-05T04:53:45.726Z,98742.50
2022-10-05T04:56:29.592Z,98731.28
2022-10-05T04:59:38.948Z,98736.22
2022-10-05T05:02:40.334Z,98731.66
2022-10-05T05:05:58.758Z,98719.22
2022-10-05T05:09:26.247Z,98734.69
2022-10-05T05:12:18.959Z,98728.72
2022-10-05T05:15:21.791Z,98725.97
2022-10-05T05:18:01.157Z,98727.31
2022-10-05T05:21:18.180Z,98724.72
2022-10-05T05:24:01.847Z,98728.16
2022-10-05T05:26:52.817Z,98714.38
2022-10-05T05:30:03.026Z,98717.22
2022-10-05T05:32:55.486Z,98711.09
2022-10-05T05:36:06.135Z,98723.28
2022-10-05T05:38:35.573Z,98741.03
2022-10-05T05:41:25.224Z,98745.97
2022-10-05T05:44:08.617Z,98748.81
2022-10-05T05:47:05.587Z,98757.81
2022-10-05T05:49:49.263Z,98763.84
2022-10-05T05:52:25.861Z,98760.66
2022-10-05T05:55:13.498Z,98741.22
2022-10-05T05:58:08.460Z,98755.69
2022-10-05T06:01:01.056Z,98764.03
2022-10-05T06:03:43.562Z,98757.13
2022-10-05T06:06:17.850Z,98747.72
2022-10-05T06:08:53.267Z,98759.66
2022-10-05T06:11:30.920Z,98754.53
2022-10-05T06:14:28.067Z,98755.44
2022-10-05T06:17:24.725Z,98746.38
2022-10-05T06:20:04.878Z,98739.03
2022-10-05T06:22:49.346Z,98730.53
2022-10-05T06:25:56.639Z,98740.66
2022-10-05T06:28:27.404Z,98741.97
2022-10-05T06:31:29.758Z,98745.00
2022-10-05T06:34:38.203Z,98748.38
2022-10-05T06:37:16.988Z,98748.53
2022-10-05T06:40:01.731Z,98758.34
2022-10-05T06:42:55.288Z,98761.53
2022-10-05T06:45:43.213Z,98767.06
2022-10-05T06:48:25.356Z,98765.72
2022-10-05T06:51:34.801Z,98781.03
2022-10-05T06:54:10.706Z,98772.03
2022-10-05T06:57:02.296Z,98777.50
2022-10-05T06:59:41.628Z,98774.91
2022-10-05T07:02:30.708Z,98766.78
2022-10-05T07:05:55.256Z,98764.78
2022-10-05T07:08:59.477Z,98777.34
2022-10-05T07:12:00.884Z,98755.69
2022-10-05T07:14:46.513Z,98763.38
2022-10-05T07:17:44.342Z,98758.94
2022-10-05T07:21:21.578Z,98759.09
2022-10-05T07:24:31.767Z,98759.16
2022-10-05T07:27:23.633Z,98764.72
2022-10-05T07:29:56.936Z,98756.91
2022-10-05T07:32:40.304Z,98758.34
2022-10-05T07:35:52.805Z,98759.22
2022-10-05T07:38:45.149Z,98763.38
2022-10-05T07:41:31.263Z,98759.59
2022-10-05T07:44:14.463Z,98748.03
2022-10-05T07:46:58.165Z,98741.53
2022-10-05T07:50:02.573Z,98751.31
2022-10-05T07:52:45.860Z,98787.94
2022-10-05T07:55:23.649Z,98765.00
2022-10-05T07:58:11.310Z,98769.16
2022-10-05T08:01:00.944Z,98779.09
2022-10-05T08:04:03.403Z,98770.91
2022-10-05T08:06:56.689Z,98772.28
2022-10-05T08:09:45.645Z,98799.28
2022-10-05T08:12:34.200Z,98766.53
2022-10-05T08:15:43.172Z,98775.78
2022-10-05T08:18:56.835Z,98788.88
2022-10-05T08:21:37.338Z,98787.34
2022-10-05T08:24:17.057Z,98802.56
2022-10-05T08:27:01.837Z,98816.25
2022-10-05T08:30:03.854Z,98807.88
2022-10-05T08:32:39.131Z,98796.94
2022-10-05T08:35:37.807Z,98802.09
2022-10-05T08:38:18.850Z,98781.72
2022-10-05T08:41:26.268Z,98792.00
2022-10-05T08:44:46.213Z,98798.47
2022-10-05T08:47:48.990Z,98790.06
2022-10-05T08:50:43.986Z,98813.69
2022-10-05T08:54:01.606Z,98799.94
2022-10-05T08:57:00.599Z,98806.16
2022-10-05T09:00:15.432Z,98791.94
2022-10-05T09:03:01.106Z,98797.53
2022-10-05T09:06:05.044Z,98803.22
2022-10-05T09:08:40.838Z,98781.72
2022-10-05T09:11:32.371Z,98787.03
2022-10-05T09:14:20.793Z,98795.00
2022-10-05T09:16:56.432Z,98786.22
2022-10-05T09:20:00.469Z,98783.56
2022-10-05T09:22:55.071Z,98790.28
2022-10-05T09:26:07.182Z,98783.19
2022-10-05T09:29:10.881Z,98780.97
2022-10-05T09:32:03.063Z,98779.38
2022-10-05T09:34:58.836Z,98788.88
2022-10-05T09:38:20.070Z,98787.66
2022-10-05T09:41:43.413Z,98783.94
2022-10-05T09:44:56.252Z,98791.72
2022-10-05T09:47:59.898Z,98785.16
2022-10-05T09:50:40.879Z,98780.97
2022-10-05T09:54:05.082Z,98780.50
2022-10-05T09:56:56.526Z,98795.63
2022-10-05T09:59:48.061Z,98780.09
2022-10-05T10:02:39.604Z,98789.91
2022-10-05T10:05:17.080Z,98771.84
2022-10-05T10:08:12.137Z,98796.44
2022-10-05T10:11:32.818Z,98796.00
2022-10-05T10:14:29.665Z,98790.53
2022-10-05T10:17:32.331Z,98795.34
2022-10-05T10:20:39.085Z,98815.44
2022-10-05T10:23:24.411Z,98811.56
2022-10-05T10:26:16.245Z,98818.25
2022-10-05T10:29:16.185Z,98809.28
2022-10-05T10:31:56.453Z,98817.06
2022-10-05T10:34:54.301Z,98793.66
2022-10-05T10:38:23.771Z,98797.75
2022-10-05T10:41:21.940Z,98803.09
2022-10-05T10:44:11.112Z,98800.97
2022-10-05T10:47:15.468Z,98800.09
2022-10-05T10:50:01.116Z,98790.53
2022-10-05T10:52:53.906Z,98798.66
2022-10-05T10:55:43.025Z,98786.19
2022-10-05T10:59:02.994Z,98791.31
2022-10-05T11:01:48.537Z,98780.22
2022-10-05T11:04:19.159Z,98780.44
2022-10-05T11:07:37.007Z,98777.25
2022-10-05T11:10:26.130Z,98784.69
2022-10-05T11:13:11.453Z,98794.44
2022-10-05T11:15:56.253Z,98777.44
2022-10-05T11:18:47.533Z,98786.97
2022-10-05T11:21:36.795Z,98778.78
2022-10-05T11:24:39.032Z,98775.63
2022-10-05T11:27:27.523Z,98773.78
2022-10-05T11:30:06.431Z,98765.00
2022-10-05T11:32:42.179Z,98763.28
2022-10-05T11:35:32.743Z,98776.78
2022-10-05T11:38:57.152Z,98757.75
2022-10-05T11:41:50.634Z,98765.25
2022-10-05T11:44:49.006Z,98762.31
2022-10-05T11:47:36.163Z,98760.88
2022-10-05T11:50:23.247Z,98759.38
2022-10-05T11:53:07.693Z,98758.47
2022-10-05T11:56:00.699Z,98755.38
2022-10-05T11:59:01.827Z,98768.41
2022-10-05T12:01:36.442Z,98756.88
2022-10-05T12:04:25.185Z,98768.53
2022-10-05T12:07:03.050Z,98756.41
2022-10-05T12:10:04.878Z,98753.38
2022-10-05T12:13:21.697Z,98739.03
2022-10-05T12:16:12.261Z,98738.09
2022-10-05T12:19:09.871Z,98726.06
2022-10-05T12:21:56.674Z,98716.69
2022-10-05T12:24:48.451Z,98733.72
2022-10-05T12:27:23.086Z,98720.75
2022-10-05T12:30:29.499Z,98705.91
2022-10-05T12:33:17.100Z,98693.47
2022-10-05T12:35:48.963Z,98714.09
2022-10-05T12:38:56.964Z,98708.19
2022-10-05T12:41:38.952Z,98676.75
2022-10-05T12:45:01.639Z,98681.75
2022-10-05T12:48:01.126Z,98684.16
2022-10-05T12:50:41.737Z,98684.34
2022-10-05T12:53:51.978Z,98688.97
2022-10-05T12:56:53.123Z,98689.06
2022-10-05T12:59:43.391Z,98676.78
2022-10-05T13:02:42.982Z,98686.50
2022-10-05T13:05:10.401Z,98679.28
2022-10-05T13:08:00.630Z,98676.69
2022-10-05T13:10:48.308Z,98697.44
2022-10-05T13:13:21.185Z,98678.34
2022-10-05T13:15:48.535Z,98672.69
2022-10-05T13:18:49.343Z,98674.22
2022-10-05T13:21:26.757Z,98673.72
2022-10-05T13:24:14.397Z,98679.91
2022-10-05T13:26:53.687Z,98671.75
2022-10-05T13:30:05.479Z,98680.41
2022-10-05T13:32:41.181Z,98669.97
2022-10-05T13:35:35.471Z,98675.16
2022-10-05T13:38:47.355Z,98654.84
2022-10-05T13:41:40.731Z,98647.00
2022-10-05T13:44:42.867Z,98667.66
2022-10-05T13:47:37.873Z,98660.31
2022-10-05T13:50:48.582Z,98651.28
2022-10-05T13:53:36.901Z,98646.09
2022-10-05T13:56:12.663Z,98640.38
2022-10-05T13:58:47.919Z,98637.63
2022-10-05T14:01:30.925Z,98632.16
2022-10-05T14:04:22.213Z,98635.75
2022-10-05T14:06:52.661Z,98625.09
2022-10-05T14:09:31.803Z,98627.69
2022-10-05T14:12:05.317Z,98623.44
2022-10-05T14:14:44.962Z,98625.09
2022-10-05T14:17:42.615Z,98622.47
2022-10-05T14:20:36.457Z,98634.09
2022-10-05T14:23:18.434Z,98638.31
2022-10-05T14:25:54.169Z,98633.66
2022-10-05T14:28:31.441Z,98641.53
2022-10-05T14:31:26.587Z,98641.69
2022-10-05T14:33:54.157Z,98646.56
2022-10-05T14:36:44.054Z,98645.59
2022-10-05T14:39:13.683Z,98632.03
2022-10-05T14:41:50.689Z,98644.72
2022-10-05T14:47:31.737Z,98639.91
2022-10-05T14:50:21.660Z,98640.44
2022-10-05T14:53:21.523Z,98643.97
2022-10-05T14:56:11.787Z,98649.22
2022-10-05T14:58:58.027Z,98641.94
2022-10-05T15:01:39.329Z,98632.06
2022-10-05T15:04:43.885Z,98633.97
2022-10-05T15:07:28.078Z,98630.69
2022-10-05T15:10:26.921Z,98631.88
2022-10-05T15:13:08.051Z,98631.69
2022-10-05T15:15:59.669Z,98630.84
2022-10-05T15:18:57.606Z,98632.47
2022-10-05T15:21:30.573Z,98625.31
2022-10-05T15:24:16.644Z,98624.59
2022-10-05T15:26:54.572Z,98616.94
2022-10-05T15:30:00.358Z,98615.66
2022-10-05T15:33:15.211Z,98616.09
2022-10-05T15:36:00.774Z,98613.97
2022-10-05T15:39:10.671Z,98602.31
2022-10-05T15:42:04.960Z,98601.09
2022-10-05T15:44:56.966Z,98591.22
2022-10-05T15:48:02.884Z,98599.84
2022-10-05T15:50:45.736Z,98600.13
2022-10-05T15:53:28.238Z,98603.16
2022-10-05T15:56:20.250Z,98593.72
2022-10-05T15:59:27.399Z,98588.50
2022-10-05T16:02:07.109Z,98594.03
2022-10-05T16:05:13.804Z,98599.75
2022-10-05T16:08:12.237Z,98595.81
2022-10-05T16:10:45.136Z,98586.91
2022-10-05T16:13:49.657Z,98588.84
2022-10-05T16:16:59.458Z,98590.72
2022-10-05T16:19:46.198Z,98587.81
2022-10-05T16:22:25.114Z,98593.44
2022-10-05T16:25:40.192Z,98593.13
2022-10-05T16:28:24.474Z,98590.31
2022-10-05T16:31:06.815Z,98587.78
2022-10-05T16:34:09.492Z,98588.84
2022-10-05T16:37:42.579Z,98593.09
2022-10-05T16:40:50.806Z,98595.16
2022-10-05T16:43:49.555Z,98596.19
2022-10-05T16:46:59.378Z,98597.47
2022-10-05T16:49:48.934Z,98591.03
2022-10-05T16:52:21.448Z,98581.59
2022-10-05T16:55:03.019Z,98588.22
2022-10-05T16:57:36.784Z,98586.34
2022-10-05T17:00:16.010Z,98593.81
2022-10-05T17:03:18.399Z,98594.88
2022-10-05T17:05:55.822Z,98589.03
2022-10-05T17:08:49.769Z,98589.38
2022-10-05T17:12:13.927Z,98577.06
2022-10-05T17:15:10.287Z,98586.56
2022-10-05T17:18:00.999Z,98590.81
2022-10-05T17:21:03.466Z,98590.56
2022-10-05T17:23:53.956Z,98590.56
2022-10-05T17:26:46.108Z,98588.41
2022-10-05T17:29:27.982Z,98586.38
2022-10-05T17:32:34.357Z,98595.75
2022-10-05T17:35:01.635Z,98580.78
2022-10-05T17:38:22.617Z,98577.81
2022-10-05T17:41:26.802Z,98571.84
2022-10-05T17:44:21.444Z,98588.81
2022-10-05T17:46:52.693Z,98596.25
2022-10-05T17:49:44.237Z,98595.53
2022-10-05T17:53:05.118Z,98591.72
2022-10-05T17:55:44.323Z,98591.13
2022-10-05T17:58:55.493Z,98589.31
2022-10-05T18:01:39.280Z,98579.34
2022-10-05T18:04:12.882Z,98572.94
2022-10-05T18:07:00.645Z,98585.72
2022-10-05T18:09:30.926Z,98574.59
2022-10-05T18:12:16.400Z,98571.97
2022-10-05T18:15:21.380Z,98576.88
2022-10-05T18:17:51.455Z,98569.69
2022-10-05T18:20:26.497Z,98577.72
2022-10-05T18:23:06.078Z,98583.94
2022-10-05T18:25:52.841Z,98595.56
2022-10-05T18:29:13.746Z,98602.50
2022-10-05T18:32:04.816Z,98602.50
2022-10-05T18:34:58.608Z,98602.25
2022-10-05T18:38:02.076Z,98613.50
2022-10-05T18:41:03.655Z,98607.38
2022-10-05T18:43:57.813Z,98602.03
2022-10-05T18:46:42.929Z,98608.13
2022-10-05T18:49:53.049Z,98607.91
2022-10-05T18:53:00.775Z,98609.94
2022-10-05T18:55:39.453Z,98607.31
2022-10-05T18:59:03.732Z,98600.97
2022-10-05T19:01:48.886Z,98603.72
2022-10-05T19:04:27.448Z,98609.25
2022-10-05T19:07:04.917Z,98607.22
2022-10-05T19:09:40.363Z,98613.91
2022-10-05T19:12:45.029Z,98611.88
2022-10-05T19:15:46.642Z,98626.34
2022-10-05T19:18:41.519Z,98626.22
2022-10-05T19:21:41.539Z,98615.44
2022-10-05T19:24:37.614Z,98620.72
2022-10-05T19:27:34.739Z,98623.91
2022-10-05T19:30:25.215Z,98628.59
2022-10-05T19:33:43.605Z,98620.69
2022-10-05T19:36:49.114Z,98625.97
2022-10-05T19:40:18.109Z,98630.75
2022-10-05T19:43:12.330Z,98623.56
2022-10-05T19:46:05.614Z,98626.66
2022-10-05T19:48:46.662Z,98622.22
2022-10-05T19:51:25.613Z,98616.25
2022-10-05T19:53:56.158Z,98623.06
2022-10-05T19:56:28.828Z,98622.47
2022-10-05T19:58:57.514Z,98627.34
2022-10-05T20:01:38.524Z,98633.03
2022-10-05T20:04:05.886Z,98619.69
2022-10-05T20:06:34.447Z,98619.06
2022-10-05T20:09:21.821Z,98629.94
2022-10-05T20:11:56.626Z,98635.19
2022-10-05T20:14:31.859Z,98629.53
2022-10-05T20:17:50.718Z,98628.69
2022-10-05T20:20:45.801Z,98628.59
2022-10-05T20:23:23.114Z,98628.91
2022-10-05T20:26:30.498Z,98636.34
2022-10-05T20:28:57.984Z,98636.19
2022-10-05T20:31:25.241Z,98640.09
2022-10-05T20:33:56.543Z,98643.47
2022-10-05T20:36:24.122Z,98626.72
2022-10-05T20:38:51.497Z,98636.03
2022-10-05T20:41:18.704Z,98634.69
2022-10-05T20:43:46.251Z,98630.19
2022-10-05T20:46:13.516Z,98624.81
2022-10-05T20:48:40.949Z,98634.13
2022-10-05T20:51:08.777Z,98632.47
2022-10-05T20:53:41.055Z,98622.06
2022-10-05T20:56:08.454Z,98628.41
2022-10-05T20:58:36.936Z,98628.44
2022-10-05T21:01:16.603Z,98623.06
2022-10-05T21:03:44.650Z,98629.09
2022-10-05T21:06:12.619Z,98633.50
2022-10-05T21:08:39.824Z,98622.59
2022-10-05T21:11:09.054Z,98620.94
2022-10-05T21:13:38.647Z,98629.97
2022-10-05T21:16:08.910Z,98630.25
2022-10-05T21:18:37.339Z,98638.06
2022-10-05T21:21:04.960Z,98628.28
2022-10-05T21:23:34.985Z,98633.13
2022-10-05T21:26:02.860Z,98631.59
2022-10-05T21:28:30.716Z,98628.56
2022-10-05T21:30:58.634Z,98635.72
2022-10-05T21:33:26.658Z,98634.03
2022-10-05T21:35:54.367Z,98632.25
2022-10-05T21:38:21.975Z,98637.84
2022-10-05T21:40:49.234Z,98631.97
2022-10-05T21:43:16.479Z,98629.34
2022-10-05T21:45:45.826Z,98624.50
2022-10-05T21:48:16.478Z,98626.22
2022-10-05T21:50:45.167Z,98628.84
2022-10-05T21:53:16.843Z,98631.66
2022-10-05T21:55:48.806Z,98630.44
2022-10-05T21:58:19.291Z,98632.72
2022-10-05T22:00:46.640Z,98631.72
2022-10-05T22:03:13.929Z,98633.28
2022-10-05T22:05:41.601Z,98637.50
2022-10-05T22:08:24.651Z,98632.47
2022-10-05T22:10:54.742Z,98629.31
2022-10-05T22:13:26.204Z,98629.53
2022-10-05T22:15:56.339Z,98632.59
2022-10-05T22:18:26.967Z,98624.06
2022-10-05T22:20:54.671Z,98638.34
2022-10-05T22:23:21.929Z,98629.97
2022-10-05T22:25:49.454Z,98636.38
2022-10-05T22:28:17.624Z,98635.09
2022-10-05T22:30:46.144Z,98631.13
2022-10-05T22:33:14.082Z,98634.28
2022-10-05T22:35:41.561Z,98631.00
2022-10-05T22:38:08.833Z,98630.50
2022-10-05T22:40:36.926Z,98637.53
2022-10-05T22:43:04.704Z,98634.47
2022-10-05T22:45:32.870Z,98635.19
2022-10-05T22:48:00.226Z,98636.72
2022-10-05T22:50:27.664Z,98645.69
2022-10-05T22:52:54.980Z,98635.31
2022-10-05T22:55:22.263Z,98641.06
2022-10-05T22:57:49.735Z,98649.06
2022-10-05T23:00:17.151Z,98647.28
2022-10-05T23:02:45.530Z,98645.25
2022-10-05T23:05:13.499Z,98648.22
2022-10-05T23:07:49.211Z,98655.84
2022-10-05T23:10:18.918Z,98656.09
2022-10-05T23:13:00.876Z,98661.31
2022-10-05T23:15:28.790Z,98673.38
2022-10-05T23:17:57.422Z,98674.53
2022-10-05T23:20:25.031Z,98681.56
2022-10-05T23:22:52.489Z,98674.66
2022-10-05T23:25:22.232Z,98676.97
2022-10-05T23:27:49.620Z,98687.00
2022-10-05T23:30:17.491Z,98692.34
2022-10-05T23:32:45.598Z,98696.03
2022-10-05T23:35:13.826Z,98697.19
2022-10-05T23:37:44.258Z,98693.50
2022-10-05T23:40:14.350Z,98698.03
2022-10-05T23:42:42.301Z,98693.41
2022-10-05T23:45:12.418Z,98697.91
2022-10-05T23:47:40.667Z,98701.69
2022-10-05T23:50:09.782Z,98703.38
2022-10-05T23:52:37.763Z,98713.75
2022-10-05T23:55:06.347Z,98707.69
2022-10-05T23:57:34.102Z,98704.50
